Cowley, Canada
Current Conditions -  °F | °C
As of 8:00 PM on Saturday 20 Dec 2014 (Local Time) from CZPC Reporting Station
Broken Clouds Broken Clouds  
Wind Chill: 29°   Ceiling: 4600
Heat Index: 36°   Visibility: 9mi
Dew Point: 27°   Wind: 8mph
Humidity: 70%   Direction: 220°SW
Pressure: 29.51"   Gusts: NA
Location:  49.57°N, 114.07°W
Report Text: CZPC 210300Z AUTO 22007KT 170V260 9SM BKN046 02/M03 A2951 RMK SLP022
Loading
Personal Weather Stations






























Interactive Weather Map New forecast layout! Learn more

10-Day Weather Forecast

Advertisements
Track Severe Weather on mobile